Time;durP1;ratioP1;P1;durP2;ratioP2;P2;SDS_P1;SDS_P2;PMS_P1;PMS_P2;Temp;Humidity;BMP_temperature;BMP_pressure;BME280_temperature;BME280_humidity;BME280_pressure;Samples;Min_cycle;Max_cycle;Signal;HPM_P1;HPM_P2
2022/12/10 00:02:42;;;;;;;16.1;8.3;;;;;;;1.9;88.9;97350;;;;
2022/12/10 00:12:42;;;;;;;13.5;8.7;;;;;;;2;88.8;97360;;;;
2022/12/10 00:23:42;;;;;;;13.5;8.7;;;;;;;2.1;88.6;97360;;;;
2022/12/10 00:34:42;;;;;;;13.5;8.7;;;;;;;2;88.6;97380;;;;
2022/12/10 00:45:42;;;;;;;12.1;7;;;;;;;2.2;88.4;97370;;;;
2022/12/10 00:55:42;;;;;;;12.1;7;;;;;;;2.2;88.2;97370;;;;
2022/12/10 01:05:42;;;;;;;12.1;7;;;;;;;2.1;88.2;97390;;;;
2022/12/10 01:16:42;;;;;;;8.6;6.1;;;;;;;2.1;88.1;97380;;;;
2022/12/10 01:26:42;;;;;;;8.6;6.1;;;;;;;2.2;88;97400;;;;
2022/12/10 01:36:42;;;;;;;8.6;6.1;;;;;;;2.2;88;97410;;;;
2022/12/10 01:47:42;;;;;;;12.9;6.4;;;;;;;2.1;87.9;97410;;;;
2022/12/10 01:58:42;;;;;;;12.9;6.4;;;;;;;2.2;87.9;97410;;;;
2022/12/10 02:09:43;;;;;;;14.5;8.6;;;;;;;2.1;87.9;97410;;;;
2022/12/10 02:19:42;;;;;;;14.5;8.6;;;;;;;2;87.9;97420;;;;
2022/12/10 02:30:42;;;;;;;14.5;8.6;;;;;;;1.9;88.3;97420;;;;
2022/12/10 02:40:42;;;;;;;13.7;8.3;;;;;;;2;88.7;97430;;;;
2022/12/10 02:50:42;;;;;;;13.7;8.3;;;;;;;2;88.8;97440;;;;
2022/12/10 03:01:42;;;;;;;13.7;8.3;;;;;;;2.1;88.5;97450;;;;
2022/12/10 03:12:42;;;;;;;15.4;7.8;;;;;;;1.9;88.5;97450;;;;
2022/12/10 03:22:42;;;;;;;15.4;7.8;;;;;;;2;88.7;97450;;;;
2022/12/10 03:33:42;;;;;;;15.4;7.8;;;;;;;2;88.7;97460;;;;
2022/12/10 03:43:42;;;;;;;19.8;11.3;;;;;;;2;88.8;97460;;;;
2022/12/10 03:54:42;;;;;;;19.8;11.3;;;;;;;2;88.8;97460;;;;
2022/12/10 04:04:42;;;;;;;19.8;11.3;;;;;;;2;88.6;97490;;;;
2022/12/10 04:16:46;;;;;;;23.6;14.7;;;;;;;2;88.8;97500;;;;
2022/12/10 04:35:42;;;;;;;23.6;14.7;;;;;;;1.9;89.2;97500;;;;
2022/12/10 04:45:42;;;;;;;27.8;15.7;;;;;;;1.9;89.3;97510;;;;
2022/12/10 04:55:42;;;;;;;27.8;15.7;;;;;;;1.8;89.6;97520;;;;
2022/12/10 05:06:42;;;;;;;23.8;15.1;;;;;;;1.9;89.4;97520;;;;
2022/12/10 05:17:42;;;;;;;23.8;15.1;;;;;;;1.7;89.6;97540;;;;
2022/12/10 05:28:42;;;;;;;23.8;15.1;;;;;;;1.8;89.9;97580;;;;
2022/12/10 05:38:44;;;;;;;24.5;15.9;;;;;;;1.8;89.8;97590;;;;
2022/12/10 05:48:42;;;;;;;24.5;15.9;;;;;;;1.8;89.8;97590;;;;
2022/12/10 05:58:42;;;;;;;24.5;15.9;;;;;;;2.1;89.8;97550;;;;
2022/12/10 06:08:42;;;;;;;25.5;15.2;;;;;;;2;89.2;97560;;;;
2022/12/10 06:19:42;;;;;;;25.5;15.2;;;;;;;2;89.4;97550;;;;
2022/12/10 06:29:42;;;;;;;25.5;15.2;;;;;;;2;89.4;97570;;;;
2022/12/10 06:40:42;;;;;;;29.4;17.6;;;;;;;2;89.5;97590;;;;
2022/12/10 06:50:42;;;;;;;29.4;17.6;;;;;;;2;89.2;97620;;;;
2022/12/10 07:01:42;;;;;;;29.4;17.6;;;;;;;2;89.3;97640;;;;
2022/12/10 07:12:42;;;;;;;26.1;14.9;;;;;;;1.9;89.6;97650;;;;
2022/12/10 07:23:42;;;;;;;26.1;14.9;;;;;;;2.1;89.5;97650;;;;
2022/12/10 07:33:42;;;;;;;26.1;14.9;;;;;;;2.2;89.4;97650;;;;
2022/12/10 07:44:42;;;;;;;25.4;15.7;;;;;;;2.3;89.3;97650;;;;
2022/12/10 07:54:42;;;;;;;25.4;15.7;;;;;;;2.6;89.2;97630;;;;
2022/12/10 08:05:42;;;;;;;25.4;15.7;;;;;;;2.8;88.5;97650;;;;
2022/12/10 08:16:42;;;;;;;31.6;19.4;;;;;;;2.7;87.8;97670;;;;
2022/12/10 08:27:42;;;;;;;31.6;19.4;;;;;;;2.7;87.6;97680;;;;
2022/12/10 08:37:42;;;;;;;33.2;20;;;;;;;2.7;87.3;97690;;;;
2022/12/10 08:47:42;;;;;;;33.2;20;;;;;;;2.8;87.3;97680;;;;
2022/12/10 08:57:42;;;;;;;33.2;20;;;;;;;3;87.3;97670;;;;
2022/12/10 09:08:42;;;;;;;40.2;25;;;;;;;3;86.8;97670;;;;
2022/12/10 09:19:42;;;;;;;40.2;25;;;;;;;3;86.8;97670;;;;
2022/12/10 09:30:42;;;;;;;40.2;25;;;;;;;3.1;86.7;97660;;;;
2022/12/10 09:41:42;;;;;;;45.6;28.1;;;;;;;3.4;86.3;97660;;;;
2022/12/10 09:52:42;;;;;;;45.6;28.1;;;;;;;3.4;85.6;97660;;;;
2022/12/10 10:02:42;;;;;;;45.6;28.1;;;;;;;3.7;85.6;97650;;;;
2022/12/10 10:13:42;;;;;;;34.6;22.8;;;;;;;3.7;84.7;97650;;;;
2022/12/10 10:23:42;;;;;;;34.6;22.8;;;;;;;3.9;84.4;97640;;;;
2022/12/10 10:34:42;;;;;;;34.6;22.8;;;;;;;4;83.8;97640;;;;
2022/12/10 10:45:42;;;;;;;31.8;24.1;;;;;;;3.9;83.4;97630;;;;
2022/12/10 10:56:42;;;;;;;31.8;24.1;;;;;;;3.8;83.8;97640;;;;
2022/12/10 11:07:42;;;;;;;28.5;20.5;;;;;;;3.8;83.9;97650;;;;
2022/12/10 11:17:42;;;;;;;28.5;20.5;;;;;;;3.8;83.7;97650;;;;
2022/12/10 11:27:43;;;;;;;28.5;20.5;;;;;;;3.5;84.2;97650;;;;
2022/12/10 11:38:42;;;;;;;25.7;18.4;;;;;;;3.7;84.1;97650;;;;
2022/12/10 11:48:42;;;;;;;25.7;18.4;;;;;;;3.5;84.1;97650;;;;
2022/12/10 11:59:42;;;;;;;25.7;18.4;;;;;;;3.5;84.2;97640;;;;
2022/12/10 12:10:43;;;;;;;22.1;14.8;;;;;;;3.1;84.9;97640;;;;
2022/12/10 12:20:42;;;;;;;22.1;14.8;;;;;;;3.2;85.2;97640;;;;
2022/12/10 12:31:42;;;;;;;22.1;14.8;;;;;;;3.2;85.1;97640;;;;
2022/12/10 12:42:42;;;;;;;22;14.9;;;;;;;3;85.5;97620;;;;
2022/12/10 12:52:42;;;;;;;22;14.9;;;;;;;2.9;85.5;97630;;;;
2022/12/10 13:03:42;;;;;;;22;14.9;;;;;;;2.7;85.7;97640;;;;
2022/12/10 13:14:43;;;;;;;21.8;12.3;;;;;;;2.8;85.9;97650;;;;
2022/12/10 13:24:43;;;;;;;21.8;12.3;;;;;;;2.6;86.4;97660;;;;
2022/12/10 13:35:42;;;;;;;17.7;11.1;;;;;;;2.2;87.4;97670;;;;
2022/12/10 13:45:42;;;;;;;17.7;11.1;;;;;;;2.5;87.5;97670;;;;
2022/12/10 13:55:42;;;;;;;17.7;11.1;;;;;;;2.4;87.4;97670;;;;
2022/12/10 14:05:42;;;;;;;20.5;13.3;;;;;;;2.3;87.6;97680;;;;
2022/12/10 14:15:42;;;;;;;20.5;13.3;;;;;;;2.3;87.6;97700;;;;
2022/12/10 14:26:42;;;;;;;20.5;13.3;;;;;;;2.3;87.6;97680;;;;
2022/12/10 14:36:43;;;;;;;27.1;14.9;;;;;;;2.2;87.7;97680;;;;
2022/12/10 14:47:42;;;;;;;27.1;14.9;;;;;;;2.2;87.6;97680;;;;
2022/12/10 14:57:42;;;;;;;27.1;14.9;;;;;;;2.3;87.8;97690;;;;
2022/12/10 15:07:42;;;;;;;30.6;17.9;;;;;;;2.3;87.7;97680;;;;
2022/12/10 15:17:42;;;;;;;30.6;17.9;;;;;;;2.1;87.9;97680;;;;
2022/12/10 15:28:42;;;;;;;30.6;17.9;;;;;;;2;88.5;97690;;;;
2022/12/10 15:38:42;;;;;;;30.1;15.6;;;;;;;2.1;88.4;97710;;;;
2022/12/10 15:48:42;;;;;;;30.1;15.6;;;;;;;2.1;88.3;97700;;;;
2022/12/10 15:58:42;;;;;;;30.1;15.6;;;;;;;2.1;88.3;97700;;;;
2022/12/10 16:09:42;;;;;;;36.7;21;;;;;;;1.7;89.2;97700;;;;
2022/12/10 16:19:43;;;;;;;36.7;21;;;;;;;1.7;89.4;97690;;;;
2022/12/10 16:30:42;;;;;;;36.7;21;;;;;;;1.7;89.6;97690;;;;
2022/12/10 16:40:42;;;;;;;35.5;20.5;;;;;;;1.6;90;97680;;;;
2022/12/10 16:50:42;;;;;;;35.5;20.5;;;;;;;1.6;90;97690;;;;
2022/12/10 17:01:42;;;;;;;35.5;20.5;;;;;;;1.6;90.1;97690;;;;
2022/12/10 17:11:47;;;;;;;42.1;22.1;;;;;;;1.7;90;97690;;;;
2022/12/10 17:22:42;;;;;;;42.1;22.1;;;;;;;1.7;89.8;97680;;;;
2022/12/10 17:32:42;;;;;;;42.1;22.1;;;;;;;1.4;90.3;97670;;;;
2022/12/10 17:43:42;;;;;;;32;19.1;;;;;;;1.5;90.5;97670;;;;
2022/12/10 17:53:42;;;;;;;32;19.1;;;;;;;1.4;90.9;97660;;;;
2022/12/10 18:04:42;;;;;;;28.8;17;;;;;;;1.4;91.1;97660;;;;
2022/12/10 18:14:42;;;;;;;28.8;17;;;;;;;1.4;91.3;97660;;;;
2022/12/10 18:25:42;;;;;;;28.8;17;;;;;;;1.4;91.4;97670;;;;
2022/12/10 18:36:42;;;;;;;36;18.1;;;;;;;1.4;91.5;97660;;;;
2022/12/10 18:47:42;;;;;;;36;18.1;;;;;;;1.3;92;97660;;;;
2022/12/10 18:57:42;;;;;;;36;18.1;;;;;;;1.3;92;97670;;;;
2022/12/10 19:07:42;;;;;;;28.1;13;;;;;;;1.4;92;97670;;;;
2022/12/10 19:18:44;;;;;;;28.1;13;;;;;;;1.4;92.1;97660;;;;
2022/12/10 19:29:42;;;;;;;28.1;13;;;;;;;1.4;92;97670;;;;
2022/12/10 19:40:42;;;;;;;20.4;10.7;;;;;;;1.3;91.8;97680;;;;
2022/12/10 19:51:43;;;;;;;20.4;10.7;;;;;;;1.4;91.9;97670;;;;
2022/12/10 20:02:42;;;;;;;20.4;10.7;;;;;;;1.4;91.7;97660;;;;
2022/12/10 20:13:42;;;;;;;36;17.5;;;;;;;1.5;91.6;97650;;;;
2022/12/10 20:23:42;;;;;;;36;17.5;;;;;;;1.3;91.7;97630;;;;
2022/12/10 20:34:42;;;;;;;27.7;14.6;;;;;;;1.4;91.6;97620;;;;
2022/12/10 20:45:42;;;;;;;27.7;14.6;;;;;;;1.4;91.6;97620;;;;
2022/12/10 20:56:44;;;;;;;27.7;14.6;;;;;;;1.1;92.1;97620;;;;
2022/12/10 21:06:42;;;;;;;22.2;12.9;;;;;;;0.9;92.5;97600;;;;
2022/12/10 21:17:42;;;;;;;22.2;12.9;;;;;;;0.9;92.9;97600;;;;
2022/12/10 21:28:42;;;;;;;22.2;12.9;;;;;;;0.8;93.2;97600;;;;
2022/12/10 21:38:42;;;;;;;19.7;11;;;;;;;0.8;93.4;97610;;;;
2022/12/10 21:48:42;;;;;;;19.7;11;;;;;;;0.9;93.4;97610;;;;
2022/12/10 21:59:42;;;;;;;19.7;11;;;;;;;0.9;93.2;97600;;;;
2022/12/10 22:10:42;;;;;;;21.6;10.6;;;;;;;0.9;93.1;97590;;;;
2022/12/10 22:20:42;;;;;;;21.6;10.6;;;;;;;1;93;97590;;;;
2022/12/10 22:31:43;;;;;;;21.6;10.6;;;;;;;0.8;92.9;97590;;;;
2022/12/10 22:41:42;;;;;;;24.6;12.7;;;;;;;0.9;92.8;97580;;;;
2022/12/10 22:52:42;;;;;;;24.6;12.7;;;;;;;0.9;92.7;97570;;;;
2022/12/10 23:02:42;;;;;;;24.6;12.7;;;;;;;1;92.7;97570;;;;
2022/12/10 23:13:20;;;;;;;29.8;14.6;;;;;;;1;92.5;97560;;;;
2022/12/10 23:23:43;;;;;;;29.8;14.6;;;;;;;0.9;92.3;97550;;;;
2022/12/10 23:34:42;;;;;;;23.2;11.4;;;;;;;1;92.4;97530;;;;
2022/12/10 23:44:42;;;;;;;23.2;11.4;;;;;;;1;92.2;97520;;;;
2022/12/10 23:55:42;;;;;;;23.2;11.4;;;;;;;1;92.1;97510;;;;
